sensor_id;sensor_type;location;lat;lon;timestamp;temperature;humidity
14378;DHT22;7272;53.668;9.578;2023-08-06T00:00:49;17.30;99.90
14378;DHT22;7272;53.668;9.578;2023-08-06T00:03:50;17.30;99.90
14378;DHT22;7272;53.668;9.578;2023-08-06T00:06:51;17.30;99.90
14378;DHT22;7272;53.668;9.578;2023-08-06T00:09:52;17.20;99.90
14378;DHT22;7272;53.668;9.578;2023-08-06T00:12:54;17.20;99.90
14378;DHT22;7272;53.668;9.578;2023-08-06T00:15:55;17.10;99.90
14378;DHT22;7272;53.668;9.578;2023-08-06T00:18:56;17.10;99.90
14378;DHT22;7272;53.668;9.578;2023-08-06T00:21:57;17.10;99.90
14378;DHT22;7272;53.668;9.578;2023-08-06T00:24:59;17.10;99.90
14378;DHT22;7272;53.668;9.578;2023-08-06T00:28:00;17.10;99.90
14378;DHT22;7272;53.668;9.578;2023-08-06T00:31:02;17.10;99.90
14378;DHT22;7272;53.668;9.578;2023-08-06T00:34:03;17.10;99.90
14378;DHT22;7272;53.668;9.578;2023-08-06T00:37:04;17.10;99.90
14378;DHT22;7272;53.668;9.578;2023-08-06T00:40:07;17.10;99.90
14378;DHT22;7272;53.668;9.578;2023-08-06T00:43:09;17.10;99.90
14378;DHT22;7272;53.668;9.578;2023-08-06T00:46:10;17.10;99.90
14378;DHT22;7272;53.668;9.578;2023-08-06T00:49:12;17.10;99.90
14378;DHT22;7272;53.668;9.578;2023-08-06T00:52:13;17.10;99.90
14378;DHT22;7272;53.668;9.578;2023-08-06T00:55:15;17.20;99.90
14378;DHT22;7272;53.668;9.578;2023-08-06T00:58:17;17.20;99.90
14378;DHT22;7272;53.668;9.578;2023-08-06T01:01:18;17.10;99.90
14378;DHT22;7272;53.668;9.578;2023-08-06T01:04:19;17.10;99.90
14378;DHT22;7272;53.668;9.578;2023-08-06T01:07:40;17.10;99.90
14378;DHT22;7272;53.668;9.578;2023-08-06T01:10:51;17.10;99.90
14378;DHT22;7272;53.668;9.578;2023-08-06T01:14:02;17.10;99.90
14378;DHT22;7272;53.668;9.578;2023-08-06T01:17:04;17.20;99.90
14378;DHT22;7272;53.668;9.578;2023-08-06T01:20:08;17.10;99.90
14378;DHT22;7272;53.668;9.578;2023-08-06T01:23:10;17.10;99.90
14378;DHT22;7272;53.668;9.578;2023-08-06T01:26:15;17.10;99.90
14378;DHT22;7272;53.668;9.578;2023-08-06T01:29:23;17.00;99.90
14378;DHT22;7272;53.668;9.578;2023-08-06T01:32:26;17.00;99.90
14378;DHT22;7272;53.668;9.578;2023-08-06T01:35:30;17.00;99.90
14378;DHT22;7272;53.668;9.578;2023-08-06T01:38:34;17.10;99.90
14378;DHT22;7272;53.668;9.578;2023-08-06T01:41:35;17.00;99.90
14378;DHT22;7272;53.668;9.578;2023-08-06T01:44:36;17.00;99.90
14378;DHT22;7272;53.668;9.578;2023-08-06T01:47:37;17.00;99.90
14378;DHT22;7272;53.668;9.578;2023-08-06T01:50:38;16.90;99.90
14378;DHT22;7272;53.668;9.578;2023-08-06T01:53:40;16.90;99.90
14378;DHT22;7272;53.668;9.578;2023-08-06T01:56:41;16.90;99.90
14378;DHT22;7272;53.668;9.578;2023-08-06T01:59:42;16.90;99.90
14378;DHT22;7272;53.668;9.578;2023-08-06T02:02:44;17.10;99.90
14378;DHT22;7272;53.668;9.578;2023-08-06T02:05:45;17.10;99.90
14378;DHT22;7272;53.668;9.578;2023-08-06T02:08:47;17.00;99.90
14378;DHT22;7272;53.668;9.578;2023-08-06T02:11:50;17.00;99.90
14378;DHT22;7272;53.668;9.578;2023-08-06T02:14:51;17.00;99.90
14378;DHT22;7272;53.668;9.578;2023-08-06T02:17:52;17.00;99.90
14378;DHT22;7272;53.668;9.578;2023-08-06T02:20:57;17.10;99.90
14378;DHT22;7272;53.668;9.578;2023-08-06T02:23:59;17.20;99.90
14378;DHT22;7272;53.668;9.578;2023-08-06T02:27:00;17.10;99.90
14378;DHT22;7272;53.668;9.578;2023-08-06T02:30:01;17.10;99.90
14378;DHT22;7272;53.668;9.578;2023-08-06T02:33:04;17.00;99.90
14378;DHT22;7272;53.668;9.578;2023-08-06T02:36:05;16.90;99.90
14378;DHT22;7272;53.668;9.578;2023-08-06T02:39:07;16.90;99.90
14378;DHT22;7272;53.668;9.578;2023-08-06T02:42:09;16.90;99.90
14378;DHT22;7272;53.668;9.578;2023-08-06T02:45:10;16.90;99.90
14378;DHT22;7272;53.668;9.578;2023-08-06T02:48:12;16.80;99.90
14378;DHT22;7272;53.668;9.578;2023-08-06T02:51:13;16.80;99.90
14378;DHT22;7272;53.668;9.578;2023-08-06T02:54:15;16.70;99.90
14378;DHT22;7272;53.668;9.578;2023-08-06T02:57:16;16.70;99.90
14378;DHT22;7272;53.668;9.578;2023-08-06T03:00:18;16.70;99.90
14378;DHT22;7272;53.668;9.578;2023-08-06T03:03:19;16.70;99.90
14378;DHT22;7272;53.668;9.578;2023-08-06T03:06:28;16.80;99.90
14378;DHT22;7272;53.668;9.578;2023-08-06T03:09:32;16.90;99.90
14378;DHT22;7272;53.668;9.578;2023-08-06T03:12:33;16.90;99.90
14378;DHT22;7272;53.668;9.578;2023-08-06T03:15:36;16.90;99.90
14378;DHT22;7272;53.668;9.578;2023-08-06T03:18:38;16.80;99.90
14378;DHT22;7272;53.668;9.578;2023-08-06T03:21:42;16.80;99.90
14378;DHT22;7272;53.668;9.578;2023-08-06T03:24:44;16.80;99.90
14378;DHT22;7272;53.668;9.578;2023-08-06T03:27:46;16.80;99.90
14378;DHT22;7272;53.668;9.578;2023-08-06T03:30:59;16.80;99.90
14378;DHT22;7272;53.668;9.578;2023-08-06T03:34:00;16.80;99.90
14378;DHT22;7272;53.668;9.578;2023-08-06T03:37:04;16.80;99.90
14378;DHT22;7272;53.668;9.578;2023-08-06T03:40:07;16.80;99.90
14378;DHT22;7272;53.668;9.578;2023-08-06T03:43:09;16.80;99.90
14378;DHT22;7272;53.668;9.578;2023-08-06T03:46:11;16.70;99.90
14378;DHT22;7272;53.668;9.578;2023-08-06T03:49:12;16.70;99.90
14378;DHT22;7272;53.668;9.578;2023-08-06T03:52:13;16.70;99.90
14378;DHT22;7272;53.668;9.578;2023-08-06T03:55:15;16.80;99.90
14378;DHT22;7272;53.668;9.578;2023-08-06T03:58:17;16.80;99.90
14378;DHT22;7272;53.668;9.578;2023-08-06T04:01:18;16.80;99.90
14378;DHT22;7272;53.668;9.578;2023-08-06T04:04:21;16.80;99.90
14378;DHT22;7272;53.668;9.578;2023-08-06T04:07:22;16.80;99.90
14378;DHT22;7272;53.668;9.578;2023-08-06T04:10:24;16.80;99.90
14378;DHT22;7272;53.668;9.578;2023-08-06T04:13:25;16.80;99.90
14378;DHT22;7272;53.668;9.578;2023-08-06T04:16:26;16.70;99.90
14378;DHT22;7272;53.668;9.578;2023-08-06T04:19:27;16.70;99.90
14378;DHT22;7272;53.668;9.578;2023-08-06T04:22:29;16.70;99.90
14378;DHT22;7272;53.668;9.578;2023-08-06T04:25:31;16.70;99.90
14378;DHT22;7272;53.668;9.578;2023-08-06T04:28:32;16.70;99.90
14378;DHT22;7272;53.668;9.578;2023-08-06T04:31:33;16.70;99.90
14378;DHT22;7272;53.668;9.578;2023-08-06T04:34:37;16.70;99.90
14378;DHT22;7272;53.668;9.578;2023-08-06T04:37:39;16.70;99.90
14378;DHT22;7272;53.668;9.578;2023-08-06T04:40:41;16.70;99.90
14378;DHT22;7272;53.668;9.578;2023-08-06T04:43:43;16.70;99.90
14378;DHT22;7272;53.668;9.578;2023-08-06T04:46:44;16.70;99.90
14378;DHT22;7272;53.668;9.578;2023-08-06T04:49:45;16.80;99.90
14378;DHT22;7272;53.668;9.578;2023-08-06T04:52:46;16.80;99.90
14378;DHT22;7272;53.668;9.578;2023-08-06T04:55:48;16.80;99.90
14378;DHT22;7272;53.668;9.578;2023-08-06T04:58:50;16.80;99.90
14378;DHT22;7272;53.668;9.578;2023-08-06T05:01:51;16.80;99.90
14378;DHT22;7272;53.668;9.578;2023-08-06T05:04:52;16.90;99.90
14378;DHT22;7272;53.668;9.578;2023-08-06T05:07:55;16.90;99.90
14378;DHT22;7272;53.668;9.578;2023-08-06T05:10:57;16.90;99.90
14378;DHT22;7272;53.668;9.578;2023-08-06T05:13:58;16.90;99.90
14378;DHT22;7272;53.668;9.578;2023-08-06T05:16:59;16.90;99.90
14378;DHT22;7272;53.668;9.578;2023-08-06T05:20:03;16.90;99.90
14378;DHT22;7272;53.668;9.578;2023-08-06T05:23:04;16.90;99.90
14378;DHT22;7272;53.668;9.578;2023-08-06T05:26:06;17.00;99.90
14378;DHT22;7272;53.668;9.578;2023-08-06T05:29:07;17.10;99.90
14378;DHT22;7272;53.668;9.578;2023-08-06T05:32:08;17.10;99.90
14378;DHT22;7272;53.668;9.578;2023-08-06T05:35:10;17.10;99.90
14378;DHT22;7272;53.668;9.578;2023-08-06T05:38:11;17.00;99.90
14378;DHT22;7272;53.668;9.578;2023-08-06T05:41:13;17.00;99.90
14378;DHT22;7272;53.668;9.578;2023-08-06T05:44:15;17.00;99.90
14378;DHT22;7272;53.668;9.578;2023-08-06T05:47:16;17.10;99.90
14378;DHT22;7272;53.668;9.578;2023-08-06T05:50:17;17.20;99.90
14378;DHT22;7272;53.668;9.578;2023-08-06T05:53:18;17.20;99.90
14378;DHT22;7272;53.668;9.578;2023-08-06T05:56:20;17.20;99.90
14378;DHT22;7272;53.668;9.578;2023-08-06T05:59:21;17.20;99.90
14378;DHT22;7272;53.668;9.578;2023-08-06T06:02:22;17.20;99.90
14378;DHT22;7272;53.668;9.578;2023-08-06T06:05:23;17.30;99.90
14378;DHT22;7272;53.668;9.578;2023-08-06T06:08:25;17.30;99.90
14378;DHT22;7272;53.668;9.578;2023-08-06T06:11:26;17.40;99.90
14378;DHT22;7272;53.668;9.578;2023-08-06T06:14:27;17.50;99.90
14378;DHT22;7272;53.668;9.578;2023-08-06T06:17:29;17.50;99.90
14378;DHT22;7272;53.668;9.578;2023-08-06T06:20:32;17.60;99.90
14378;DHT22;7272;53.668;9.578;2023-08-06T06:23:33;17.70;99.90
14378;DHT22;7272;53.668;9.578;2023-08-06T06:26:35;17.70;99.90
14378;DHT22;7272;53.668;9.578;2023-08-06T06:29:36;17.70;99.90
14378;DHT22;7272;53.668;9.578;2023-08-06T06:32:37;17.70;99.90
14378;DHT22;7272;53.668;9.578;2023-08-06T06:35:38;17.80;99.90
14378;DHT22;7272;53.668;9.578;2023-08-06T06:38:39;17.90;99.90
14378;DHT22;7272;53.668;9.578;2023-08-06T06:41:41;18.00;99.90
14378;DHT22;7272;53.668;9.578;2023-08-06T06:44:52;18.00;99.90
14378;DHT22;7272;53.668;9.578;2023-08-06T06:47:53;18.00;99.90
14378;DHT22;7272;53.668;9.578;2023-08-06T06:50:55;18.00;99.90
14378;DHT22;7272;53.668;9.578;2023-08-06T06:53:56;18.00;99.90
14378;DHT22;7272;53.668;9.578;2023-08-06T06:56:58;18.00;99.90
14378;DHT22;7272;53.668;9.578;2023-08-06T06:59:59;18.20;99.90
14378;DHT22;7272;53.668;9.578;2023-08-06T07:03:00;18.40;99.90
14378;DHT22;7272;53.668;9.578;2023-08-06T07:06:07;18.40;99.90
14378;DHT22;7272;53.668;9.578;2023-08-06T07:09:08;18.50;99.90
14378;DHT22;7272;53.668;9.578;2023-08-06T07:12:09;18.50;99.90
14378;DHT22;7272;53.668;9.578;2023-08-06T07:15:11;18.50;99.90
14378;DHT22;7272;53.668;9.578;2023-08-06T07:18:12;18.60;99.90
14378;DHT22;7272;53.668;9.578;2023-08-06T07:21:14;18.60;99.90
14378;DHT22;7272;53.668;9.578;2023-08-06T07:24:15;18.80;99.90
14378;DHT22;7272;53.668;9.578;2023-08-06T07:27:16;18.70;99.90
14378;DHT22;7272;53.668;9.578;2023-08-06T07:30:17;18.80;99.90
14378;DHT22;7272;53.668;9.578;2023-08-06T07:33:18;18.90;99.90
14378;DHT22;7272;53.668;9.578;2023-08-06T07:36:20;19.00;99.90
14378;DHT22;7272;53.668;9.578;2023-08-06T07:39:22;19.00;99.90
14378;DHT22;7272;53.668;9.578;2023-08-06T07:42:23;19.10;99.90
14378;DHT22;7272;53.668;9.578;2023-08-06T07:45:24;19.10;99.90
14378;DHT22;7272;53.668;9.578;2023-08-06T07:48:27;19.20;99.90
14378;DHT22;7272;53.668;9.578;2023-08-06T07:51:29;19.20;99.90
14378;DHT22;7272;53.668;9.578;2023-08-06T07:54:30;19.20;99.90
14378;DHT22;7272;53.668;9.578;2023-08-06T07:57:31;19.30;99.90
14378;DHT22;7272;53.668;9.578;2023-08-06T08:00:32;19.30;99.90
14378;DHT22;7272;53.668;9.578;2023-08-06T08:03:34;19.30;99.90
14378;DHT22;7272;53.668;9.578;2023-08-06T08:06:36;19.40;99.90
14378;DHT22;7272;53.668;9.578;2023-08-06T08:09:37;19.50;99.90
14378;DHT22;7272;53.668;9.578;2023-08-06T08:12:38;19.60;99.90
14378;DHT22;7272;53.668;9.578;2023-08-06T08:15:39;19.60;99.90
14378;DHT22;7272;53.668;9.578;2023-08-06T08:18:41;19.60;99.90
14378;DHT22;7272;53.668;9.578;2023-08-06T08:21:42;19.60;99.90
14378;DHT22;7272;53.668;9.578;2023-08-06T08:24:43;19.60;99.90
14378;DHT22;7272;53.668;9.578;2023-08-06T08:27:45;19.60;99.90
14378;DHT22;7272;53.668;9.578;2023-08-06T08:30:46;19.80;99.90
14378;DHT22;7272;53.668;9.578;2023-08-06T08:33:47;19.90;99.90
14378;DHT22;7272;53.668;9.578;2023-08-06T08:36:49;19.90;99.90
14378;DHT22;7272;53.668;9.578;2023-08-06T08:39:50;19.90;99.90
14378;DHT22;7272;53.668;9.578;2023-08-06T08:42:53;19.90;99.90
14378;DHT22;7272;53.668;9.578;2023-08-06T08:45:54;19.90;99.90
14378;DHT22;7272;53.668;9.578;2023-08-06T08:48:57;20.00;99.90
14378;DHT22;7272;53.668;9.578;2023-08-06T08:52:02;20.20;99.90
14378;DHT22;7272;53.668;9.578;2023-08-06T08:55:04;20.20;99.90
14378;DHT22;7272;53.668;9.578;2023-08-06T08:58:06;20.10;99.90
14378;DHT22;7272;53.668;9.578;2023-08-06T09:01:09;20.20;99.90
14378;DHT22;7272;53.668;9.578;2023-08-06T09:04:10;20.20;99.90
14378;DHT22;7272;53.668;9.578;2023-08-06T09:07:17;20.20;99.90
14378;DHT22;7272;53.668;9.578;2023-08-06T09:10:20;20.20;99.90
14378;DHT22;7272;53.668;9.578;2023-08-06T09:13:23;20.40;99.90
14378;DHT22;7272;53.668;9.578;2023-08-06T09:16:25;20.40;99.90
14378;DHT22;7272;53.668;9.578;2023-08-06T09:19:27;20.40;99.90
14378;DHT22;7272;53.668;9.578;2023-08-06T09:22:34;20.30;99.90
14378;DHT22;7272;53.668;9.578;2023-08-06T09:25:38;20.30;99.90
14378;DHT22;7272;53.668;9.578;2023-08-06T09:28:40;20.30;99.90
14378;DHT22;7272;53.668;9.578;2023-08-06T09:31:45;20.30;99.90
14378;DHT22;7272;53.668;9.578;2023-08-06T09:34:46;20.50;99.90
14378;DHT22;7272;53.668;9.578;2023-08-06T09:37:48;20.60;99.90
14378;DHT22;7272;53.668;9.578;2023-08-06T09:40:49;20.50;99.90
14378;DHT22;7272;53.668;9.578;2023-08-06T09:43:50;20.40;99.90
14378;DHT22;7272;53.668;9.578;2023-08-06T09:46:54;20.50;99.90
14378;DHT22;7272;53.668;9.578;2023-08-06T09:49:56;20.50;99.90
14378;DHT22;7272;53.668;9.578;2023-08-06T09:53:00;20.50;99.90
14378;DHT22;7272;53.668;9.578;2023-08-06T09:56:01;20.70;99.90
14378;DHT22;7272;53.668;9.578;2023-08-06T09:59:03;20.70;99.90
14378;DHT22;7272;53.668;9.578;2023-08-06T10:02:11;20.70;99.90
14378;DHT22;7272;53.668;9.578;2023-08-06T10:05:13;20.80;99.90
14378;DHT22;7272;53.668;9.578;2023-08-06T10:08:15;20.80;99.90
14378;DHT22;7272;53.668;9.578;2023-08-06T10:11:17;20.80;99.90
14378;DHT22;7272;53.668;9.578;2023-08-06T10:14:22;20.90;99.90
14378;DHT22;7272;53.668;9.578;2023-08-06T10:17:26;21.00;99.90
14378;DHT22;7272;53.668;9.578;2023-08-06T10:20:33;21.10;99.90
14378;DHT22;7272;53.668;9.578;2023-08-06T10:23:36;21.00;99.90
14378;DHT22;7272;53.668;9.578;2023-08-06T10:26:39;20.90;99.90
14378;DHT22;7272;53.668;9.578;2023-08-06T10:29:40;20.90;99.90
14378;DHT22;7272;53.668;9.578;2023-08-06T10:32:48;21.00;99.90
14378;DHT22;7272;53.668;9.578;2023-08-06T10:35:50;21.10;99.90
14378;DHT22;7272;53.668;9.578;2023-08-06T10:38:52;21.00;99.90
14378;DHT22;7272;53.668;9.578;2023-08-06T10:41:53;20.90;99.90
14378;DHT22;7272;53.668;9.578;2023-08-06T10:45:21;20.90;99.90
14378;DHT22;7272;53.668;9.578;2023-08-06T10:48:32;20.90;99.90
14378;DHT22;7272;53.668;9.578;2023-08-06T10:51:34;21.00;99.90
14378;DHT22;7272;53.668;9.578;2023-08-06T10:54:36;21.30;99.90
14378;DHT22;7272;53.668;9.578;2023-08-06T10:57:39;21.40;99.90
14378;DHT22;7272;53.668;9.578;2023-08-06T11:00:41;21.60;99.90
14378;DHT22;7272;53.668;9.578;2023-08-06T11:03:45;21.60;99.90
14378;DHT22;7272;53.668;9.578;2023-08-06T11:06:52;21.60;99.90
14378;DHT22;7272;53.668;9.578;2023-08-06T11:10:01;21.60;99.90
14378;DHT22;7272;53.668;9.578;2023-08-06T11:13:02;21.70;99.90
14378;DHT22;7272;53.668;9.578;2023-08-06T11:16:04;21.80;99.90
14378;DHT22;7272;53.668;9.578;2023-08-06T11:19:07;21.70;99.90
14378;DHT22;7272;53.668;9.578;2023-08-06T11:22:08;21.70;99.90
14378;DHT22;7272;53.668;9.578;2023-08-06T11:25:10;21.70;99.90
14378;DHT22;7272;53.668;9.578;2023-08-06T11:28:12;21.80;99.90
14378;DHT22;7272;53.668;9.578;2023-08-06T11:31:19;21.90;99.90
14378;DHT22;7272;53.668;9.578;2023-08-06T11:34:20;21.90;99.90
14378;DHT22;7272;53.668;9.578;2023-08-06T11:37:21;21.90;99.90
14378;DHT22;7272;53.668;9.578;2023-08-06T11:40:24;22.00;99.90
14378;DHT22;7272;53.668;9.578;2023-08-06T11:43:25;22.00;99.90
14378;DHT22;7272;53.668;9.578;2023-08-06T11:46:26;22.00;99.90
14378;DHT22;7272;53.668;9.578;2023-08-06T11:49:46;22.10;99.90
14378;DHT22;7272;53.668;9.578;2023-08-06T11:52:47;22.20;99.90
14378;DHT22;7272;53.668;9.578;2023-08-06T11:55:49;22.20;99.90
14378;DHT22;7272;53.668;9.578;2023-08-06T11:58:50;22.10;99.90
14378;DHT22;7272;53.668;9.578;2023-08-06T12:01:52;22.00;99.90
14378;DHT22;7272;53.668;9.578;2023-08-06T12:05:04;22.00;99.90
14378;DHT22;7272;53.668;9.578;2023-08-06T12:08:10;22.00;99.90
14378;DHT22;7272;53.668;9.578;2023-08-06T12:11:12;22.10;99.90
14378;DHT22;7272;53.668;9.578;2023-08-06T12:14:13;22.00;99.90
14378;DHT22;7272;53.668;9.578;2023-08-06T12:17:14;22.00;99.90
14378;DHT22;7272;53.668;9.578;2023-08-06T12:20:16;22.00;99.90
14378;DHT22;7272;53.668;9.578;2023-08-06T12:23:17;22.00;99.90
14378;DHT22;7272;53.668;9.578;2023-08-06T12:26:19;22.00;99.90
14378;DHT22;7272;53.668;9.578;2023-08-06T12:29:20;22.00;99.90
14378;DHT22;7272;53.668;9.578;2023-08-06T12:32:21;22.00;99.90
14378;DHT22;7272;53.668;9.578;2023-08-06T12:35:23;21.80;99.90
14378;DHT22;7272;53.668;9.578;2023-08-06T12:38:26;21.80;99.90
14378;DHT22;7272;53.668;9.578;2023-08-06T12:41:28;21.70;99.90
14378;DHT22;7272;53.668;9.578;2023-08-06T12:44:29;21.50;99.90
14378;DHT22;7272;53.668;9.578;2023-08-06T12:47:30;21.40;99.90
14378;DHT22;7272;53.668;9.578;2023-08-06T12:50:32;21.30;99.90
14378;DHT22;7272;53.668;9.578;2023-08-06T12:53:33;21.20;99.90
14378;DHT22;7272;53.668;9.578;2023-08-06T12:56:35;21.00;99.90
14378;DHT22;7272;53.668;9.578;2023-08-06T12:59:36;20.80;99.90
14378;DHT22;7272;53.668;9.578;2023-08-06T13:02:37;20.70;99.90
14378;DHT22;7272;53.668;9.578;2023-08-06T13:05:38;20.90;99.90
14378;DHT22;7272;53.668;9.578;2023-08-06T13:08:39;20.90;99.90
14378;DHT22;7272;53.668;9.578;2023-08-06T13:11:42;20.80;99.90
14378;DHT22;7272;53.668;9.578;2023-08-06T13:14:46;20.70;99.90
14378;DHT22;7272;53.668;9.578;2023-08-06T13:17:47;20.60;99.90
14378;DHT22;7272;53.668;9.578;2023-08-06T13:20:48;20.70;99.90
14378;DHT22;7272;53.668;9.578;2023-08-06T13:23:53;20.80;99.90
14378;DHT22;7272;53.668;9.578;2023-08-06T13:26:54;20.70;99.90
14378;DHT22;7272;53.668;9.578;2023-08-06T13:29:56;20.50;99.90
14378;DHT22;7272;53.668;9.578;2023-08-06T13:32:57;20.40;99.90
14378;DHT22;7272;53.668;9.578;2023-08-06T13:35:58;20.30;99.90
14378;DHT22;7272;53.668;9.578;2023-08-06T13:39:00;20.50;99.90
14378;DHT22;7272;53.668;9.578;2023-08-06T13:42:02;20.50;99.90
14378;DHT22;7272;53.668;9.578;2023-08-06T13:45:04;20.50;99.90
14378;DHT22;7272;53.668;9.578;2023-08-06T13:48:05;20.50;99.90
14378;DHT22;7272;53.668;9.578;2023-08-06T13:51:07;20.30;99.90
14378;DHT22;7272;53.668;9.578;2023-08-06T13:54:08;20.20;99.90
14378;DHT22;7272;53.668;9.578;2023-08-06T13:57:10;20.20;99.90
14378;DHT22;7272;53.668;9.578;2023-08-06T14:00:12;20.20;99.90
14378;DHT22;7272;53.668;9.578;2023-08-06T14:03:13;20.20;99.90
14378;DHT22;7272;53.668;9.578;2023-08-06T14:06:14;20.10;99.90
14378;DHT22;7272;53.668;9.578;2023-08-06T14:09:15;20.00;99.90
14378;DHT22;7272;53.668;9.578;2023-08-06T14:12:19;20.00;99.90
14378;DHT22;7272;53.668;9.578;2023-08-06T14:15:21;20.00;99.90
14378;DHT22;7272;53.668;9.578;2023-08-06T14:18:22;20.00;99.90
14378;DHT22;7272;53.668;9.578;2023-08-06T14:21:23;20.10;99.90
14378;DHT22;7272;53.668;9.578;2023-08-06T14:24:24;20.10;99.90
14378;DHT22;7272;53.668;9.578;2023-08-06T14:27:26;20.10;99.90
14378;DHT22;7272;53.668;9.578;2023-08-06T14:30:27;20.20;99.90
14378;DHT22;7272;53.668;9.578;2023-08-06T14:33:28;20.20;99.90
14378;DHT22;7272;53.668;9.578;2023-08-06T14:36:29;20.20;99.90
14378;DHT22;7272;53.668;9.578;2023-08-06T14:39:30;20.20;99.90
14378;DHT22;7272;53.668;9.578;2023-08-06T14:42:32;20.20;99.90
14378;DHT22;7272;53.668;9.578;2023-08-06T14:45:35;20.10;99.90
14378;DHT22;7272;53.668;9.578;2023-08-06T14:48:38;20.00;99.90
14378;DHT22;7272;53.668;9.578;2023-08-06T14:51:39;20.00;99.90
14378;DHT22;7272;53.668;9.578;2023-08-06T14:54:40;19.90;99.90
14378;DHT22;7272;53.668;9.578;2023-08-06T14:57:42;19.90;99.90
14378;DHT22;7272;53.668;9.578;2023-08-06T15:00:45;20.10;99.90
14378;DHT22;7272;53.668;9.578;2023-08-06T15:03:46;20.00;99.90
14378;DHT22;7272;53.668;9.578;2023-08-06T15:06:47;20.10;99.90
14378;DHT22;7272;53.668;9.578;2023-08-06T15:09:48;20.10;99.90
14378;DHT22;7272;53.668;9.578;2023-08-06T15:12:50;20.10;99.90
14378;DHT22;7272;53.668;9.578;2023-08-06T15:15:51;20.10;99.90
14378;DHT22;7272;53.668;9.578;2023-08-06T15:18:53;20.20;99.90
14378;DHT22;7272;53.668;9.578;2023-08-06T15:21:54;20.10;99.90
14378;DHT22;7272;53.668;9.578;2023-08-06T15:24:55;20.10;99.90
14378;DHT22;7272;53.668;9.578;2023-08-06T15:27:57;20.10;99.90
14378;DHT22;7272;53.668;9.578;2023-08-06T15:30:58;20.10;99.90
14378;DHT22;7272;53.668;9.578;2023-08-06T15:33:59;20.10;99.90
14378;DHT22;7272;53.668;9.578;2023-08-06T15:37:00;20.00;99.90
14378;DHT22;7272;53.668;9.578;2023-08-06T15:40:02;20.20;99.90
14378;DHT22;7272;53.668;9.578;2023-08-06T15:43:03;20.20;99.90
14378;DHT22;7272;53.668;9.578;2023-08-06T15:46:05;20.10;99.90
14378;DHT22;7272;53.668;9.578;2023-08-06T15:49:06;20.10;99.90
14378;DHT22;7272;53.668;9.578;2023-08-06T15:52:07;20.00;99.90
14378;DHT22;7272;53.668;9.578;2023-08-06T15:55:09;20.10;99.90
14378;DHT22;7272;53.668;9.578;2023-08-06T15:58:11;20.10;99.90
14378;DHT22;7272;53.668;9.578;2023-08-06T16:01:12;20.10;99.90
14378;DHT22;7272;53.668;9.578;2023-08-06T16:04:14;20.10;99.90
14378;DHT22;7272;53.668;9.578;2023-08-06T16:07:15;20.10;99.90
14378;DHT22;7272;53.668;9.578;2023-08-06T16:10:17;20.00;99.90
14378;DHT22;7272;53.668;9.578;2023-08-06T16:13:18;20.00;99.90
14378;DHT22;7272;53.668;9.578;2023-08-06T16:16:20;20.00;99.90
14378;DHT22;7272;53.668;9.578;2023-08-06T16:19:21;20.20;99.90
14378;DHT22;7272;53.668;9.578;2023-08-06T16:22:22;20.20;99.90
14378;DHT22;7272;53.668;9.578;2023-08-06T16:25:23;20.10;99.90
14378;DHT22;7272;53.668;9.578;2023-08-06T16:28:25;20.00;99.90
14378;DHT22;7272;53.668;9.578;2023-08-06T16:31:29;20.00;99.90
14378;DHT22;7272;53.668;9.578;2023-08-06T16:34:30;20.00;99.90
14378;DHT22;7272;53.668;9.578;2023-08-06T16:37:32;19.90;99.90
14378;DHT22;7272;53.668;9.578;2023-08-06T16:40:33;19.80;99.90
14378;DHT22;7272;53.668;9.578;2023-08-06T16:43:35;19.80;99.90
14378;DHT22;7272;53.668;9.578;2023-08-06T16:46:36;19.70;99.90
14378;DHT22;7272;53.668;9.578;2023-08-06T16:49:37;19.70;99.90
14378;DHT22;7272;53.668;9.578;2023-08-06T16:52:39;19.80;99.90
14378;DHT22;7272;53.668;9.578;2023-08-06T16:55:40;20.00;99.90
14378;DHT22;7272;53.668;9.578;2023-08-06T16:58:42;20.00;99.90
14378;DHT22;7272;53.668;9.578;2023-08-06T17:01:43;19.90;99.90
14378;DHT22;7272;53.668;9.578;2023-08-06T17:04:45;19.80;99.90
14378;DHT22;7272;53.668;9.578;2023-08-06T17:07:46;19.90;99.90
14378;DHT22;7272;53.668;9.578;2023-08-06T17:10:50;19.80;99.90
14378;DHT22;7272;53.668;9.578;2023-08-06T17:13:52;19.80;99.90
14378;DHT22;7272;53.668;9.578;2023-08-06T17:16:53;19.80;99.90
14378;DHT22;7272;53.668;9.578;2023-08-06T17:19:54;19.90;99.90
14378;DHT22;7272;53.668;9.578;2023-08-06T17:22:56;19.80;99.90
14378;DHT22;7272;53.668;9.578;2023-08-06T17:25:57;19.70;99.90
14378;DHT22;7272;53.668;9.578;2023-08-06T17:28:59;19.70;99.90
14378;DHT22;7272;53.668;9.578;2023-08-06T17:32:00;19.70;99.90
14378;DHT22;7272;53.668;9.578;2023-08-06T17:35:01;19.70;99.90
14378;DHT22;7272;53.668;9.578;2023-08-06T17:38:04;19.70;99.90
14378;DHT22;7272;53.668;9.578;2023-08-06T17:41:05;19.60;99.90
14378;DHT22;7272;53.668;9.578;2023-08-06T17:44:07;19.60;99.90
14378;DHT22;7272;53.668;9.578;2023-08-06T17:47:08;19.50;99.90
14378;DHT22;7272;53.668;9.578;2023-08-06T17:50:10;19.50;99.90
14378;DHT22;7272;53.668;9.578;2023-08-06T17:53:11;19.50;99.90
14378;DHT22;7272;53.668;9.578;2023-08-06T17:56:13;19.50;99.90
14378;DHT22;7272;53.668;9.578;2023-08-06T17:59:15;19.60;99.90
14378;DHT22;7272;53.668;9.578;2023-08-06T18:02:16;19.60;99.90
14378;DHT22;7272;53.668;9.578;2023-08-06T18:05:17;19.50;99.90
14378;DHT22;7272;53.668;9.578;2023-08-06T18:08:18;19.50;99.90
14378;DHT22;7272;53.668;9.578;2023-08-06T18:11:19;19.40;99.90
14378;DHT22;7272;53.668;9.578;2023-08-06T18:14:21;19.40;99.90
14378;DHT22;7272;53.668;9.578;2023-08-06T18:17:22;19.40;99.90
14378;DHT22;7272;53.668;9.578;2023-08-06T18:20:24;19.30;99.90
14378;DHT22;7272;53.668;9.578;2023-08-06T18:23:25;19.30;99.90
14378;DHT22;7272;53.668;9.578;2023-08-06T18:26:26;19.30;99.90
14378;DHT22;7272;53.668;9.578;2023-08-06T18:29:28;19.30;99.90
14378;DHT22;7272;53.668;9.578;2023-08-06T18:32:29;19.20;99.90
14378;DHT22;7272;53.668;9.578;2023-08-06T18:35:30;19.30;99.90
14378;DHT22;7272;53.668;9.578;2023-08-06T18:38:32;19.30;99.90
14378;DHT22;7272;53.668;9.578;2023-08-06T18:41:34;19.30;99.90
14378;DHT22;7272;53.668;9.578;2023-08-06T18:44:35;19.20;99.90
14378;DHT22;7272;53.668;9.578;2023-08-06T18:47:36;19.10;99.90
14378;DHT22;7272;53.668;9.578;2023-08-06T18:50:38;19.10;99.90
14378;DHT22;7272;53.668;9.578;2023-08-06T18:53:39;19.00;99.90
14378;DHT22;7272;53.668;9.578;2023-08-06T18:56:40;19.00;99.90
14378;DHT22;7272;53.668;9.578;2023-08-06T18:59:42;19.00;99.90
14378;DHT22;7272;53.668;9.578;2023-08-06T19:02:43;19.00;99.90
14378;DHT22;7272;53.668;9.578;2023-08-06T19:05:44;19.00;99.90
14378;DHT22;7272;53.668;9.578;2023-08-06T19:08:45;18.90;99.90
14378;DHT22;7272;53.668;9.578;2023-08-06T19:11:46;18.80;99.90
14378;DHT22;7272;53.668;9.578;2023-08-06T19:14:48;18.80;99.90
14378;DHT22;7272;53.668;9.578;2023-08-06T19:17:49;18.90;99.90
14378;DHT22;7272;53.668;9.578;2023-08-06T19:20:54;19.00;99.90
14378;DHT22;7272;53.668;9.578;2023-08-06T19:23:56;19.00;99.90
14378;DHT22;7272;53.668;9.578;2023-08-06T19:26:58;18.90;99.90